createdAt,value
2023-04-04T00:00:35.041Z,99200.78
2023-04-04T00:03:14.996Z,99194.72
2023-04-04T00:05:42.839Z,99196.44
2023-04-04T00:08:09.788Z,99191.25
2023-04-04T00:10:37.072Z,99192.97
2023-04-04T00:13:05.772Z,99192.97
2023-04-04T00:15:34.718Z,99194.69
2023-04-04T00:18:02.879Z,99192.09
2023-04-04T00:20:31.146Z,99192.13
2023-04-04T00:22:58.188Z,99192.97
2023-04-04T00:25:25.742Z,99195.59
2023-04-04T00:27:52.783Z,99201.66
2023-04-04T00:30:20.207Z,99196.50
2023-04-04T00:32:47.181Z,99199.97
2023-04-04T00:35:14.725Z,99201.72
2023-04-04T00:37:41.703Z,99195.69
2023-04-04T00:40:09.363Z,99195.72
2023-04-04T00:42:37.438Z,99186.19
2023-04-04T00:45:08.146Z,99191.41
2023-04-04T00:47:35.961Z,99194.84
2023-04-04T00:50:03.434Z,99195.72
2023-04-04T00:52:30.344Z,99191.41
2023-04-04T00:54:57.842Z,99185.38
2023-04-04T00:57:24.951Z,99190.56
2023-04-04T00:59:52.398Z,99189.69
2023-04-04T01:02:19.390Z,99190.56
2023-04-04T01:04:47.310Z,99188.84
2023-04-04T01:07:14.377Z,99190.56
2023-04-04T01:09:42.145Z,99200.09
2023-04-04T01:12:09.356Z,99190.56
2023-04-04T01:14:36.579Z,99186.25
2023-04-04T01:17:03.716Z,99190.56
2023-04-04T01:19:36.982Z,99186.28
2023-04-04T01:22:06.184Z,99184.53
2023-04-04T01:24:34.979Z,99184.53
2023-04-04T01:27:02.171Z,99189.75
2023-04-04T01:29:29.381Z,99188.88
2023-04-04T01:32:21.060Z,99184.56
2023-04-04T01:35:13.053Z,99185.41
2023-04-04T01:37:52.967Z,99189.75
2023-04-04T01:40:27.250Z,99188.84
2023-04-04T01:42:55.584Z,99196.66
2023-04-04T01:45:23.286Z,99191.44
2023-04-04T01:47:50.131Z,99189.72
2023-04-04T01:50:17.420Z,99190.59
2023-04-04T01:52:44.602Z,99187.16
2023-04-04T01:55:11.770Z,99190.59
2023-04-04T01:57:38.625Z,99188.03
2023-04-04T02:00:06.550Z,99190.63
2023-04-04T02:02:33.629Z,99189.75
2023-04-04T02:05:00.825Z,99189.75
2023-04-04T02:07:27.805Z,99195.81
2023-04-04T02:09:54.985Z,99194.09
2023-04-04T02:12:22.455Z,99187.16
2023-04-04T02:14:49.632Z,99189.75
2023-04-04T02:17:16.888Z,99188.91
2023-04-04T02:19:44.089Z,99193.19
2023-04-04T02:22:11.078Z,99193.19
2023-04-04T02:24:38.316Z,99192.34
2023-04-04T02:27:05.287Z,99185.44
2023-04-04T02:29:32.482Z,99184.56
2023-04-04T02:31:59.333Z,99183.69
2023-04-04T02:34:26.656Z,99181.13
2023-04-04T02:36:53.532Z,99178.53
2023-04-04T02:39:20.825Z,99177.66
2023-04-04T02:41:47.794Z,99177.66
2023-04-04T02:44:14.988Z,99175.97
2023-04-04T02:46:42.466Z,99175.97
2023-04-04T02:49:09.592Z,99169.03
2023-04-04T02:51:36.943Z,99169.03
2023-04-04T02:54:05.358Z,99159.53
2023-04-04T02:56:32.411Z,99152.59
2023-04-04T02:58:59.599Z,99149.13
2023-04-04T03:01:26.609Z,99141.38
2023-04-04T03:03:54.121Z,99151.69
2023-04-04T03:06:21.026Z,99152.56
2023-04-04T03:08:48.312Z,99144.75
2023-04-04T03:11:20.102Z,99136.97
2023-04-04T03:13:47.784Z,99137.78
2023-04-04T03:16:16.501Z,99136.06
2023-04-04T03:18:44.777Z,99138.59
2023-04-04T03:21:11.736Z,99141.13
2023-04-04T03:23:38.909Z,99136.78
2023-04-04T03:26:05.829Z,99138.47
2023-04-04T03:28:33.015Z,99130.69
2023-04-04T03:31:06.464Z,99141.84
2023-04-04T03:33:38.210Z,99141.81
2023-04-04T03:36:14.868Z,99144.34
2023-04-04T03:38:42.369Z,99146.03
2023-04-04T03:41:09.354Z,99138.25
2023-04-04T03:43:36.687Z,99142.50
2023-04-04T03:46:04.896Z,99144.22
2023-04-04T03:48:32.262Z,99144.19
2023-04-04T03:50:59.406Z,99140.69
2023-04-04T03:53:27.155Z,99137.22
2023-04-04T03:55:56.742Z,99144.09
2023-04-04T03:58:24.288Z,99140.59
2023-04-04T04:00:51.278Z,99137.16
2023-04-04T04:03:18.689Z,99139.72
2023-04-04T04:05:45.802Z,99146.59
2023-04-04T04:08:13.413Z,99148.34
2023-04-04T04:10:40.812Z,99146.59
2023-04-04T04:13:08.665Z,99152.66
2023-04-04T04:15:35.649Z,99149.31
2023-04-04T04:18:02.946Z,99150.25
2023-04-04T04:20:29.917Z,99151.16
2023-04-04T04:22:57.117Z,99145.19
2023-04-04T04:25:24.132Z,99156.38
2023-04-04T04:27:51.321Z,99152.94
2023-04-04T04:30:18.157Z,99157.28
2023-04-04T04:32:45.519Z,99161.56
2023-04-04T04:35:12.541Z,99163.31
2023-04-04T04:37:39.717Z,99165.03
2023-04-04T04:40:07.299Z,99176.34
2023-04-04T04:42:34.627Z,99185.88
2023-04-04T04:45:01.588Z,99185.94
2023-04-04T04:47:31.956Z,99187.78
2023-04-04T04:49:58.821Z,99189.72
2023-04-04T04:52:26.460Z,99195.00
2023-04-04T04:54:55.957Z,99197.63
2023-04-04T04:57:23.316Z,99201.91
2023-04-04T04:59:50.143Z,99212.28
2023-04-04T05:02:17.357Z,99211.38
2023-04-04T05:04:45.463Z,99208.53
2023-04-04T05:07:12.791Z,99203.72
2023-04-04T05:09:39.716Z,99198.59
2023-04-04T05:12:07.878Z,99199.22
2023-04-04T05:14:34.749Z,99194.41
2023-04-04T05:17:02.143Z,99199.06
2023-04-04T05:19:29.319Z,99197.50
2023-04-04T05:21:56.472Z,99197.75
2023-04-04T05:24:23.532Z,99195.34
2023-04-04T05:26:50.754Z,99199.00
2023-04-04T05:29:17.607Z,99194.78
2023-04-04T05:31:44.819Z,99195.50
2023-04-04T05:34:11.825Z,99202.53
2023-04-04T05:36:39.080Z,99196.63
2023-04-04T05:39:06.423Z,99206.00
2023-04-04T05:41:33.672Z,99203.19
2023-04-04T05:44:00.619Z,99204.81
2023-04-04T05:46:27.832Z,99197.44
2023-04-04T05:48:54.768Z,99204.81
2023-04-04T05:51:21.992Z,99210.72
2023-04-04T05:53:49.023Z,99207.69
2023-04-04T05:56:16.707Z,99203.34
2023-04-04T05:58:45.190Z,99213.69
2023-04-04T06:01:12.635Z,99214.75
2023-04-04T06:03:39.614Z,99214.06
2023-04-04T06:06:07.604Z,99213.94
2023-04-04T06:08:50.207Z,99226.34
2023-04-04T06:11:19.998Z,99224.97
2023-04-04T06:13:46.827Z,99226.28
2023-04-04T06:16:14.254Z,99217.03
2023-04-04T06:18:41.557Z,99227.66
2023-04-04T06:21:08.812Z,99226.47
2023-04-04T06:23:37.830Z,99224.78
2023-04-04T06:26:05.859Z,99224.47
2023-04-04T06:28:32.721Z,99221.72
2023-04-04T06:31:00.140Z,99217.66
2023-04-04T06:33:27.065Z,99219.72
2023-04-04T06:35:54.236Z,99218.13
2023-04-04T06:38:21.336Z,99218.63
2023-04-04T06:40:48.525Z,99214.97
2023-04-04T06:43:15.475Z,99215.63
2023-04-04T06:45:42.680Z,99216.13
2023-04-04T06:48:09.636Z,99214.53
2023-04-04T06:50:37.790Z,99217.56
2023-04-04T06:53:06.654Z,99216.78
2023-04-04T06:55:34.641Z,99210.41
2023-04-04T06:58:02.077Z,99209.69
2023-04-04T07:00:29.337Z,99210.19
2023-04-04T07:03:00.530Z,99196.94
2023-04-04T07:05:27.821Z,99198.34
2023-04-04T07:07:57.054Z,99196.00
2023-04-04T07:10:24.922Z,99190.44
2023-04-04T07:12:51.893Z,99198.34
2023-04-04T07:15:19.119Z,99198.34
2023-04-04T07:17:45.997Z,99202.97
2023-04-04T07:20:13.534Z,99199.31
2023-04-04T07:22:41.121Z,99201.25
2023-04-04T07:25:09.674Z,99201.91
2023-04-04T07:27:37.092Z,99203.75
2023-04-04T07:30:05.312Z,99193.50
2023-04-04T07:32:32.369Z,99190.09
2023-04-04T07:34:59.639Z,99195.66
2023-04-04T07:37:29.267Z,99184.94
2023-04-04T07:39:56.907Z,99190.78
2023-04-04T07:42:23.818Z,99191.72
2023-04-04T07:44:52.141Z,99188.56
2023-04-04T07:47:19.064Z,99183.50
2023-04-04T07:49:46.611Z,99169.19
2023-04-04T07:52:13.493Z,99174.72
2023-04-04T07:54:40.766Z,99167.81
2023-04-04T07:57:09.959Z,99160.16
2023-04-04T07:59:37.922Z,99155.59
2023-04-04T08:02:04.906Z,99151.84
2023-04-04T08:04:32.195Z,99153.94
2023-04-04T08:06:59.245Z,99158.84
2023-04-04T08:09:28.505Z,99160.28
2023-04-04T08:11:55.548Z,99154.34
2023-04-04T08:14:22.762Z,99140.50
2023-04-04T08:16:49.678Z,99149.34
2023-04-04T08:19:17.842Z,99148.63
2023-04-04T08:21:45.650Z,99141.72
2023-04-04T08:24:13.158Z,99143.22
2023-04-04T08:26:40.000Z,99138.41
2023-04-04T08:29:07.936Z,99138.50
2023-04-04T08:31:35.038Z,99144.03
2023-04-04T08:34:02.598Z,99148.34
2023-04-04T08:36:30.748Z,99150.28
2023-04-04T08:38:57.930Z,99137.78
2023-04-04T08:41:25.461Z,99134.22
2023-04-04T08:43:56.861Z,99143.47
2023-04-04T08:46:25.904Z,99141.69
2023-04-04T08:48:54.488Z,99145.59
2023-04-04T08:51:26.324Z,99147.44
2023-04-04T08:53:54.468Z,99148.59
2023-04-04T08:56:21.848Z,99143.72
2023-04-04T08:58:49.160Z,99147.84
2023-04-04T09:01:16.626Z,99147.13
2023-04-04T09:03:45.148Z,99137.69
2023-04-04T09:06:13.808Z,99150.59
2023-04-04T09:08:41.932Z,99138.66
2023-04-04T09:11:09.527Z,99140.38
2023-04-04T09:13:37.877Z,99147.75
2023-04-04T09:16:06.178Z,99144.16
2023-04-04T09:18:33.430Z,99143.09
2023-04-04T09:21:08.656Z,99148.00
2023-04-04T09:23:35.845Z,99136.81
2023-04-04T09:26:04.417Z,99151.91
2023-04-04T09:28:32.537Z,99140.38
2023-04-04T09:31:05.724Z,99140.16
2023-04-04T09:33:34.474Z,99150.44
2023-04-04T09:36:11.269Z,99154.28
2023-04-04T09:38:45.602Z,99163.84
2023-04-04T09:41:16.630Z,99162.41
2023-04-04T09:43:45.553Z,99152.13
2023-04-04T09:46:12.861Z,99147.25
2023-04-04T09:48:40.353Z,99152.09
2023-04-04T09:51:07.918Z,99147.38
2023-04-04T09:53:39.777Z,99150.47
2023-04-04T09:56:07.343Z,99144.09
2023-04-04T09:58:40.449Z,99147.31
2023-04-04T10:01:13.013Z,99141.03
2023-04-04T10:03:40.317Z,99149.00
2023-04-04T10:06:09.937Z,99153.09
2023-04-04T10:08:41.321Z,99156.28
2023-04-04T10:11:11.495Z,99154.03
2023-04-04T10:13:41.743Z,99154.78
2023-04-04T10:16:09.348Z,99159.31
2023-04-04T10:18:37.158Z,99148.00
2023-04-04T10:21:15.297Z,99139.34
2023-04-04T10:23:46.553Z,99144.03
2023-04-04T10:26:13.785Z,99145.03
2023-04-04T10:28:42.601Z,99135.63
2023-04-04T10:31:18.443Z,99143.34
2023-04-04T10:34:11.805Z,99144.00
2023-04-04T10:36:51.879Z,99147.41
2023-04-04T10:39:26.104Z,99138.78
2023-04-04T10:41:53.840Z,99144.63
2023-04-04T10:44:29.585Z,99142.31
2023-04-04T10:46:58.944Z,99145.97
2023-04-04T10:49:28.022Z,99147.50
2023-04-04T10:51:57.401Z,99145.88
2023-04-04T10:54:27.950Z,99139.69
2023-04-04T10:57:00.955Z,99135.78
2023-04-04T10:59:28.470Z,99132.72
2023-04-04T11:01:55.642Z,99133.66
2023-04-04T11:04:33.844Z,99134.25
2023-04-04T11:07:07.089Z,99133.63
2023-04-04T11:09:56.615Z,99126.06
2023-04-04T11:12:27.779Z,99128.34
2023-04-04T11:15:00.829Z,99117.09
2023-04-04T11:17:58.445Z,99114.03
2023-04-04T11:20:31.866Z,99106.31
2023-04-04T11:23:17.051Z,99120.03
2023-04-04T11:25:57.500Z,99118.75
2023-04-04T11:28:45.137Z,99113.31
2023-04-04T11:31:18.556Z,99124.88
2023-04-04T11:34:03.939Z,99130.00
2023-04-04T11:36:37.384Z,99129.56
2023-04-04T11:39:31.279Z,99116.28
2023-04-04T11:42:11.585Z,99118.53
2023-04-04T11:45:04.864Z,99116.66
2023-04-04T11:47:32.341Z,99112.88
2023-04-04T11:50:01.334Z,99115.63
2023-04-04T11:52:35.582Z,99108.09
2023-04-04T11:55:03.021Z,99106.56
2023-04-04T11:57:30.804Z,99110.88
2023-04-04T11:59:57.865Z,99112.94
2023-04-04T12:02:34.425Z,99111.84
2023-04-04T12:05:01.636Z,99105.03
2023-04-04T12:07:30.400Z,99103.31
2023-04-04T12:09:58.737Z,99113.63
2023-04-04T12:12:27.789Z,99105.28
2023-04-04T12:15:06.251Z,99107.31
2023-04-04T12:17:43.541Z,99105.16
2023-04-04T12:20:11.521Z,99115.78
2023-04-04T12:22:38.711Z,99109.69
2023-04-04T12:25:06.385Z,99109.31
2023-04-04T12:27:34.246Z,99101.91
2023-04-04T12:30:01.618Z,99098.88
2023-04-04T12:32:29.520Z,99100.63
2023-04-04T12:35:01.343Z,99090.66
2023-04-04T12:37:29.756Z,99085.13
2023-04-04T12:39:56.804Z,99079.91
2023-04-04T12:42:25.706Z,99080.94
2023-04-04T12:44:53.994Z,99081.41
2023-04-04T12:47:24.304Z,99072.78
2023-04-04T12:49:54.960Z,99067.16
2023-04-04T12:52:27.836Z,99065.19
2023-04-04T12:55:06.770Z,99067.22
2023-04-04T12:57:36.994Z,99063.03
2023-04-04T13:00:06.451Z,99065.72
2023-04-04T13:02:36.229Z,99064.81
2023-04-04T13:05:03.751Z,99060.41
2023-04-04T13:07:34.947Z,99058.75
2023-04-04T13:10:04.735Z,99073.03
2023-04-04T13:12:58.405Z,99075.69
2023-04-04T13:15:52.476Z,99062.22
2023-04-04T13:18:22.631Z,99069.00
2023-04-04T13:20:50.501Z,99066.19
2023-04-04T13:23:18.362Z,99072.78
2023-04-04T13:25:45.283Z,99073.84
2023-04-04T13:28:12.802Z,99066.13
2023-04-04T13:30:43.646Z,99069.72
2023-04-04T13:33:11.371Z,99072.59
2023-04-04T13:35:39.144Z,99073.69
2023-04-04T13:38:07.062Z,99067.44
2023-04-04T13:40:33.967Z,99060.13
2023-04-04T13:43:01.139Z,99074.25
2023-04-04T13:45:28.189Z,99070.28
2023-04-04T13:47:55.446Z,99057.25
2023-04-04T13:50:23.013Z,99059.81
2023-04-04T13:52:54.108Z,99067.56
2023-04-04T13:55:21.982Z,99059.41
2023-04-04T13:57:49.135Z,99069.25
2023-04-04T14:00:16.766Z,99061.59
2023-04-04T14:02:43.950Z,99064.19
2023-04-04T14:05:11.044Z,99071.00
2023-04-04T14:07:38.450Z,99062.97
2023-04-04T14:10:06.005Z,99055.78
2023-04-04T14:12:33.314Z,99057.53
2023-04-04T14:15:00.205Z,99060.03
2023-04-04T14:17:27.624Z,99052.06
2023-04-04T14:19:54.576Z,99056.31
2023-04-04T14:22:21.820Z,99065.13
2023-04-04T14:24:48.766Z,99054.09
2023-04-04T14:27:16.062Z,99048.22
2023-04-04T14:29:43.099Z,99057.97
2023-04-04T14:32:11.610Z,99064.41
2023-04-04T14:34:38.486Z,99057.66
2023-04-04T14:37:06.172Z,99062.22
2023-04-04T14:39:33.302Z,99065.81
2023-04-04T14:42:00.624Z,99053.81
2023-04-04T14:44:27.627Z,99061.00
2023-04-04T14:46:54.892Z,99063.84
2023-04-04T14:49:21.854Z,99059.75
2023-04-04T14:51:49.094Z,99064.28
2023-04-04T14:54:16.286Z,99063.44
2023-04-04T14:56:44.887Z,99053.91
2023-04-04T14:59:11.950Z,99050.50
2023-04-04T15:01:39.229Z,99052.25
2023-04-04T15:04:07.390Z,99058.25
2023-04-04T15:06:37.970Z,99060.63
2023-04-04T15:09:06.224Z,99055.13
2023-04-04T15:11:35.413Z,99068.00
2023-04-04T15:14:02.467Z,99069.66
2023-04-04T15:16:33.214Z,99069.50
2023-04-04T15:19:00.765Z,99076.41
2023-04-04T15:21:28.951Z,99073.81
2023-04-04T15:23:56.008Z,99079.09
2023-04-04T15:26:23.700Z,99078.34
2023-04-04T15:28:50.621Z,99077.59
2023-04-04T15:31:17.839Z,99074.31
2023-04-04T15:33:44.703Z,99073.63
2023-04-04T15:36:11.919Z,99072.03
2023-04-04T15:38:39.602Z,99084.34
2023-04-04T15:41:08.780Z,99080.16
2023-04-04T15:43:36.783Z,99082.03
2023-04-04T15:46:04.516Z,99083.94
2023-04-04T15:48:31.556Z,99085.78
2023-04-04T15:51:02.401Z,99079.81
2023-04-04T15:53:33.467Z,99090.28
2023-04-04T15:56:02.023Z,99092.88
2023-04-04T15:58:28.911Z,99091.16
2023-04-04T16:00:56.251Z,99097.28
2023-04-04T16:03:24.687Z,99093.84
2023-04-04T16:05:52.329Z,99102.56
2023-04-04T16:08:19.298Z,99096.53
2023-04-04T16:10:46.487Z,99099.22
2023-04-04T16:13:14.125Z,99104.47
2023-04-04T16:15:41.399Z,99095.88
2023-04-04T16:18:08.973Z,99100.25
2023-04-04T16:20:36.948Z,99097.69
2023-04-04T16:23:03.908Z,99101.22
2023-04-04T16:25:31.341Z,99101.28
2023-04-04T16:27:58.279Z,99103.03
2023-04-04T16:30:25.507Z,99102.22
2023-04-04T16:32:52.556Z,99107.47
2023-04-04T16:35:19.889Z,99113.59
2023-04-04T16:37:47.445Z,99111.00
2023-04-04T16:40:15.540Z,99109.31
2023-04-04T16:42:42.576Z,99113.66
2023-04-04T16:45:10.500Z,99114.56
2023-04-04T16:47:37.651Z,99108.56
2023-04-04T16:50:06.558Z,99109.44
2023-04-04T16:52:33.472Z,99110.31
2023-04-04T16:55:00.687Z,99114.69
2023-04-04T16:57:27.578Z,99114.69
2023-04-04T16:59:54.865Z,99110.38
2023-04-04T17:02:21.773Z,99113.88
2023-04-04T17:04:49.193Z,99109.56
2023-04-04T17:07:16.172Z,99115.69
2023-04-04T17:09:43.431Z,99113.13
2023-04-04T17:12:10.372Z,99108.00
2023-04-04T17:14:37.797Z,99117.56
2023-04-04T17:17:05.604Z,99120.19
2023-04-04T17:19:35.095Z,99123.66
2023-04-04T17:22:02.354Z,99135.84
2023-04-04T17:24:29.638Z,99137.56
2023-04-04T17:26:58.429Z,99135.03
2023-04-04T17:29:27.058Z,99129.06
2023-04-04T17:31:56.225Z,99125.59
2023-04-04T17:34:24.083Z,99131.69
2023-04-04T17:36:53.034Z,99136.91
2023-04-04T17:39:20.322Z,99130.84
2023-04-04T17:41:50.068Z,99141.25
2023-04-04T17:44:19.208Z,99141.28
2023-04-04T17:46:46.710Z,99145.66
2023-04-04T17:49:19.537Z,99143.91
2023-04-04T17:51:48.256Z,99149.16
2023-04-04T17:54:15.835Z,99146.56
2023-04-04T17:56:46.178Z,99154.34
2023-04-04T17:59:14.832Z,99150.03
2023-04-04T18:01:41.954Z,99150.91
2023-04-04T18:04:09.710Z,99153.50
2023-04-04T18:06:40.162Z,99153.50
2023-04-04T18:09:09.237Z,99150.06
2023-04-04T18:11:36.964Z,99150.09
2023-04-04T18:14:04.405Z,99156.19
2023-04-04T18:16:38.905Z,99152.69
2023-04-04T18:19:09.607Z,99154.44
2023-04-04T18:21:37.637Z,99152.72
2023-04-04T18:24:07.568Z,99154.47
2023-04-04T18:26:34.449Z,99148.41
2023-04-04T18:29:01.564Z,99158.81
2023-04-04T18:31:28.677Z,99148.47
2023-04-04T18:33:56.849Z,99150.16
2023-04-04T18:36:23.863Z,99149.34
2023-04-04T18:38:51.231Z,99150.25
2023-04-04T18:41:18.106Z,99154.56
2023-04-04T18:43:46.469Z,99154.56
2023-04-04T18:46:13.365Z,99154.56
2023-04-04T18:48:41.542Z,99152.81
2023-04-04T18:51:08.584Z,99157.19
2023-04-04T18:53:35.789Z,99153.69
2023-04-04T18:56:02.683Z,99157.19
2023-04-04T18:58:32.265Z,99154.59
2023-04-04T19:00:59.271Z,99158.06
2023-04-04T19:03:26.759Z,99160.69
2023-04-04T19:05:54.300Z,99165.06
2023-04-04T19:08:21.832Z,99168.50
2023-04-04T19:10:51.213Z,99171.97
2023-04-04T19:13:18.671Z,99175.50
2023-04-04T19:15:45.721Z,99165.94
2023-04-04T19:18:12.965Z,99169.41
2023-04-04T19:20:42.199Z,99168.53
2023-04-04T19:23:10.412Z,99171.19
2023-04-04T19:25:37.373Z,99165.16
2023-04-04T19:28:04.722Z,99166.03
2023-04-04T19:30:45.025Z,99161.69
2023-04-04T19:33:16.852Z,99172.09
2023-04-04T19:35:59.846Z,99172.13
2023-04-04T19:38:33.014Z,99167.78
2023-04-04T19:41:02.015Z,99180.81
2023-04-04T19:43:30.494Z,99171.25
2023-04-04T19:46:05.058Z,99178.19
2023-04-04T19:48:52.776Z,99170.44
2023-04-04T19:51:22.504Z,99166.97
2023-04-04T19:53:54.702Z,99173.03
2023-04-04T19:56:24.994Z,99168.72
2023-04-04T19:58:55.078Z,99168.69
2023-04-04T20:01:28.049Z,99167.88
2023-04-04T20:04:06.898Z,99162.66
2023-04-04T20:06:35.648Z,99156.63
2023-04-04T20:09:10.416Z,99165.25
2023-04-04T20:11:37.336Z,99168.72
2023-04-04T20:14:09.270Z,99167.00
2023-04-04T20:16:36.809Z,99162.66
2023-04-04T20:19:06.827Z,99164.44
2023-04-04T20:21:35.826Z,99167.03
2023-04-04T20:24:10.155Z,99160.97
2023-04-04T20:26:59.288Z,99163.56
2023-04-04T20:29:29.673Z,99172.25
2023-04-04T20:32:02.245Z,99167.94
2023-04-04T20:34:38.671Z,99154.06
2023-04-04T20:37:09.492Z,99165.34
2023-04-04T20:39:45.630Z,99165.34
2023-04-04T20:42:27.875Z,99170.53
2023-04-04T20:44:58.716Z,99160.16
2023-04-04T20:47:41.286Z,99157.56
2023-04-04T20:50:20.767Z,99166.22
2023-04-04T20:52:49.738Z,99159.31
2023-04-04T20:55:22.907Z,99155.00
2023-04-04T20:57:52.225Z,99162.78
2023-04-04T21:00:25.698Z,99156.72
2023-04-04T21:02:56.725Z,99163.66
2023-04-04T21:05:34.937Z,99160.19
2023-04-04T21:08:03.046Z,99170.59
2023-04-04T21:10:30.117Z,99156.75
2023-04-04T21:12:58.710Z,99165.41
2023-04-04T21:15:33.675Z,99159.34
2023-04-04T21:18:06.674Z,99165.41
2023-04-04T21:20:49.619Z,99159.38
2023-04-04T21:23:25.554Z,99162.81
2023-04-04T21:26:00.117Z,99166.28
2023-04-04T21:28:42.142Z,99168.88
2023-04-04T21:31:13.569Z,99157.63
2023-04-04T21:33:44.909Z,99159.38
2023-04-04T21:36:32.768Z,99158.53
2023-04-04T21:39:06.969Z,99161.97
2023-04-04T21:41:35.069Z,99155.06
2023-04-04T21:44:09.645Z,99153.31
2023-04-04T21:46:39.022Z,99153.31
2023-04-04T21:49:07.729Z,99145.53
2023-04-04T21:51:35.649Z,99153.31
2023-04-04T21:54:02.981Z,99147.31
2023-04-04T21:56:32.889Z,99141.25
2023-04-04T21:59:04.473Z,99142.97
2023-04-04T22:01:31.891Z,99134.34
2023-04-04T22:03:59.249Z,99139.53
2023-04-04T22:06:27.501Z,99144.72
2023-04-04T22:08:59.568Z,99142.13
2023-04-04T22:11:27.633Z,99142.16
2023-04-04T22:14:07.401Z,99146.47
2023-04-04T22:16:39.632Z,99144.72
2023-04-04T22:19:07.840Z,99145.59
2023-04-04T22:21:37.040Z,99143.88
2023-04-04T22:24:05.958Z,99147.38
2023-04-04T22:26:33.797Z,99148.22
2023-04-04T22:29:03.199Z,99146.47
2023-04-04T22:31:31.283Z,99143.06
2023-04-04T22:33:58.299Z,99142.19
2023-04-04T22:36:25.514Z,99150.84
2023-04-04T22:38:57.153Z,99140.44
2023-04-04T22:41:29.310Z,99143.06
2023-04-04T22:43:57.664Z,99139.63
2023-04-04T22:46:26.177Z,99141.34
2023-04-04T22:49:04.943Z,99147.41
2023-04-04T22:51:35.251Z,99159.50
2023-04-04T22:54:02.525Z,99151.75
2023-04-04T22:56:29.770Z,99150.88
2023-04-04T22:58:56.878Z,99146.53
2023-04-04T23:01:24.098Z,99154.34
2023-04-04T23:03:51.496Z,99151.75
2023-04-04T23:06:19.999Z,99145.72
2023-04-04T23:08:47.090Z,99146.56
2023-04-04T23:11:14.223Z,99148.28
2023-04-04T23:13:43.304Z,99144.84
2023-04-04T23:16:10.826Z,99145.72
2023-04-04T23:18:37.722Z,99145.75
2023-04-04T23:21:04.905Z,99137.94
2023-04-04T23:23:31.822Z,99137.97
2023-04-04T23:25:59.123Z,99136.22
2023-04-04T23:28:29.439Z,99138.81
2023-04-04T23:30:56.783Z,99131.91
2023-04-04T23:33:23.753Z,99142.28
2023-04-04T23:35:51.131Z,99135.34
2023-04-04T23:38:19.401Z,99137.03
2023-04-04T23:40:46.592Z,99140.50
2023-04-04T23:43:13.879Z,99139.59
2023-04-04T23:45:41.398Z,99139.59
2023-04-04T23:48:08.656Z,99135.22
2023-04-04T23:50:35.907Z,99135.22
2023-04-04T23:53:03.094Z,99138.63
2023-04-04T23:55:29.989Z,99133.44
2023-04-04T23:58:00.955Z,99135.13
